createdAt,value
2022-09-02T04:38:31.651Z,56.52
2022-09-02T04:43:34.648Z,56.08
2022-09-02T04:48:37.470Z,55.45
2022-09-02T04:53:40.887Z,55.17
2022-09-02T04:58:44.561Z,54.63
2022-09-02T05:03:49.407Z,55.35
2022-09-02T05:08:51.841Z,54.58
2022-09-02T05:13:56.875Z,54.67
2022-09-02T05:19:00.712Z,54.47
2022-09-02T05:24:11.758Z,53.73
2022-09-02T05:29:14.348Z,54.00
2022-09-02T05:34:18.789Z,54.75
2022-09-02T05:39:21.997Z,54.05
2022-09-02T05:44:25.132Z,53.51
2022-09-02T05:49:27.762Z,53.02
2022-09-02T05:54:40.084Z,52.89
2022-09-02T05:59:48.031Z,52.87
2022-09-02T06:04:54.777Z,53.09
2022-09-02T06:09:58.291Z,52.29
2022-09-02T06:15:03.000Z,52.66
2022-09-02T06:20:05.956Z,51.84
2022-09-02T06:25:09.347Z,51.48
2022-09-02T06:30:12.724Z,51.46
2022-09-02T06:35:16.200Z,51.26
2022-09-02T06:40:19.553Z,50.37
2022-09-02T06:45:26.979Z,50.10
2022-09-02T06:50:32.701Z,49.80
2022-09-02T06:55:37.932Z,49.42
2022-09-02T07:00:42.581Z,48.84
2022-09-02T07:05:46.239Z,48.92
2022-09-02T07:10:49.761Z,48.32
2022-09-02T07:15:53.015Z,48.24
2022-09-02T07:20:56.032Z,48.16
2022-09-02T07:25:58.588Z,47.90
2022-09-02T07:31:01.558Z,47.40
2022-09-02T07:36:12.312Z,46.76
2022-09-02T07:41:15.702Z,46.54
2022-09-02T07:46:19.128Z,45.24
2022-09-02T07:51:24.090Z,44.13
2022-09-02T07:56:32.047Z,43.20
2022-09-02T08:01:35.266Z,41.59
2022-09-02T08:06:38.512Z,40.40
2022-09-02T08:11:44.369Z,39.03
2022-09-02T08:16:47.594Z,38.61
2022-09-02T08:21:51.254Z,37.53
2022-09-02T08:26:53.521Z,37.34
2022-09-02T08:31:55.808Z,37.26
2022-09-02T08:36:58.118Z,38.23
2022-09-02T08:42:32.522Z,36.62
2022-09-02T08:47:37.231Z,19.99
2022-09-02T08:52:45.964Z,14.02
2022-09-02T08:57:49.671Z,10.29
2022-09-02T09:03:24.225Z,11.88
2022-09-02T09:08:45.181Z,18.84
2022-09-02T09:13:56.250Z,22.57
2022-09-02T09:19:09.031Z,22.69
2022-09-02T09:24:32.877Z,23.89
2022-09-02T09:29:36.431Z,26.02
2022-09-02T09:34:54.165Z,24.33
2022-09-02T09:39:56.454Z,25.45
2022-09-02T09:44:58.754Z,26.03
2022-09-02T09:50:17.212Z,22.01
2022-09-02T09:55:24.983Z,27.36
2022-09-02T10:00:34.420Z,29.40
2022-09-02T10:05:40.256Z,24.82
2022-09-02T10:10:57.033Z,14.84
2022-09-02T10:16:14.405Z,14.97
2022-09-02T10:21:45.204Z,22.21
2022-09-02T10:26:53.922Z,28.56
2022-09-02T10:32:23.983Z,27.40
2022-09-02T10:37:39.476Z,28.41
2022-09-02T10:42:58.516Z,19.59
2022-09-02T10:48:25.112Z,13.02
2022-09-02T10:53:43.573Z,20.28
2022-09-02T10:59:13.128Z,19.58
2022-09-02T11:04:37.784Z,12.45
2022-09-02T11:10:12.392Z,7.91
2022-09-02T11:15:23.444Z,8.58
2022-09-02T11:20:36.537Z,11.42
2022-09-02T11:25:48.213Z,15.49
2022-09-02T11:31:03.004Z,13.66
2022-09-02T11:36:05.401Z,13.07
2022-09-02T11:46:36.782Z,11.70
2022-09-02T11:51:54.496Z,14.10
2022-09-02T11:57:01.917Z,21.66
2022-09-02T12:02:05.847Z,21.88
2022-09-02T12:07:09.440Z,26.91
2022-09-02T12:12:37.413Z,16.65
2022-09-02T12:17:46.263Z,15.25
2022-09-02T12:22:49.092Z,15.86
2022-09-02T12:28:09.003Z,15.19
2022-09-02T12:33:12.594Z,14.43
2022-09-02T12:38:15.364Z,14.48
2022-09-02T12:43:33.371Z,16.01
2022-09-02T12:48:45.876Z,14.95
2022-09-02T12:53:50.734Z,18.85
2022-09-02T12:58:58.903Z,19.32
2022-09-02T13:04:32.480Z,18.76
2022-09-02T13:09:46.677Z,18.56
2022-09-02T13:15:01.623Z,20.70
2022-09-02T13:20:23.289Z,23.28
2022-09-02T13:25:43.573Z,20.80
2022-09-02T13:30:52.079Z,21.83
2022-09-02T13:35:57.087Z,23.64
2022-09-02T13:40:59.729Z,25.34
2022-09-02T13:46:03.029Z,26.11
2022-09-02T13:51:13.583Z,26.05
2022-09-02T13:56:17.616Z,26.99
2022-09-02T14:01:34.383Z,27.26
2022-09-02T14:06:42.412Z,27.36
2022-09-02T14:11:46.521Z,28.16
2022-09-02T14:16:49.045Z,28.41
2022-09-02T14:21:54.426Z,28.58
2022-09-02T14:26:58.841Z,28.37
2022-09-02T14:32:09.899Z,28.36
2022-09-02T14:37:22.706Z,26.08
2022-09-02T14:42:29.146Z,27.42
2022-09-02T14:47:38.884Z,26.56
2022-09-02T14:52:46.236Z,26.15
2022-09-02T14:57:48.431Z,27.12
2022-09-02T15:02:57.242Z,26.69
2022-09-02T15:07:59.483Z,27.87
2022-09-02T15:13:02.106Z,28.82
2022-09-02T15:18:05.389Z,29.25
2022-09-02T15:23:11.387Z,28.59
2022-09-02T15:28:13.665Z,29.37
2022-09-02T15:33:17.480Z,29.71
2022-09-02T15:38:20.154Z,29.44
2022-09-02T15:43:23.283Z,29.68
2022-09-02T15:48:25.635Z,29.64
2022-09-02T15:53:27.992Z,29.84
2022-09-02T15:58:30.786Z,30.39
2022-09-02T16:03:33.045Z,30.22
2022-09-02T16:08:35.601Z,30.13
2022-09-02T16:13:38.042Z,30.38
2022-09-02T16:18:41.287Z,30.62
2022-09-02T16:23:43.764Z,30.79
2022-09-02T16:28:46.355Z,30.49
2022-09-02T16:34:24.188Z,30.06
2022-09-02T16:39:26.514Z,30.47
2022-09-02T16:44:29.328Z,30.89
2022-09-02T16:49:32.105Z,30.94
2022-09-02T16:54:37.452Z,31.28
2022-09-02T16:59:43.168Z,31.70
2022-09-02T17:04:45.418Z,31.83
2022-09-02T17:09:47.686Z,31.93
2022-09-02T17:14:50.044Z,32.02
2022-09-02T17:19:52.281Z,32.08
2022-09-02T17:24:55.129Z,32.45
2022-09-02T17:29:59.939Z,32.61
2022-09-02T17:35:02.269Z,32.96
2022-09-02T17:40:07.217Z,33.06
2022-09-02T17:45:09.892Z,33.09
2022-09-02T17:50:15.990Z,33.33
2022-09-02T17:55:20.295Z,33.40
2022-09-02T18:00:22.705Z,33.83
2022-09-02T18:05:41.972Z,33.82
2022-09-02T18:10:57.457Z,34.00
2022-09-02T18:16:22.175Z,34.49
2022-09-02T18:22:19.369Z,34.65
2022-09-02T18:27:44.882Z,35.10
2022-09-02T18:33:07.125Z,34.96
2022-09-02T18:38:28.553Z,35.33
2022-09-02T18:43:52.642Z,35.54
2022-09-02T18:48:59.677Z,35.92
2022-09-02T18:54:12.263Z,36.24
2022-09-02T18:59:28.527Z,36.42
2022-09-02T19:04:34.885Z,36.39
2022-09-02T19:09:37.191Z,37.04
2022-09-02T19:14:42.653Z,37.06
2022-09-02T19:19:44.912Z,37.02
2022-09-02T19:24:51.560Z,37.26
2022-09-02T19:30:01.464Z,38.22
2022-09-02T19:35:09.885Z,38.41
2022-09-02T19:40:14.824Z,37.88
2022-09-02T19:45:17.101Z,38.09
2022-09-02T19:50:19.359Z,38.49
2022-09-02T19:55:21.743Z,38.60
2022-09-02T20:00:24.439Z,38.68
2022-09-02T20:05:26.894Z,39.11
2022-09-02T20:10:29.949Z,38.94
2022-09-02T20:15:36.716Z,39.17
2022-09-02T20:20:46.345Z,39.99
2022-09-02T20:26:07.441Z,39.54
2022-09-02T20:31:35.345Z,39.94
2022-09-02T20:37:11.951Z,40.23
2022-09-02T20:42:26.332Z,40.41
2022-09-02T20:47:58.401Z,42.22
2022-09-02T20:53:19.215Z,41.74
2022-09-02T20:58:40.025Z,39.87
2022-09-02T21:03:56.037Z,40.43
2022-09-02T21:09:10.033Z,41.14
2022-09-02T21:14:24.331Z,41.13
2022-09-02T21:19:36.404Z,41.36
2022-09-02T21:25:03.474Z,41.40
2022-09-02T21:30:10.123Z,41.66
2022-09-02T21:35:18.786Z,41.49
2022-09-02T21:40:30.144Z,41.56
2022-09-02T21:45:51.192Z,41.55
2022-09-02T21:50:58.617Z,41.81
2022-09-02T21:56:21.105Z,41.89
